createdAt,value
2023-04-12T00:00:52.733Z,100319.19
2023-04-12T00:03:21.065Z,100314.53
2023-04-12T00:05:54.542Z,100312.16
2023-04-12T00:08:32.919Z,100315.69
2023-04-12T00:11:00.379Z,100309.81
2023-04-12T00:13:26.818Z,100312.94
2023-04-12T00:15:53.321Z,100298.34
2023-04-12T00:18:19.847Z,100294.75
2023-04-12T00:20:46.313Z,100276.53
2023-04-12T00:23:13.439Z,100286.13
2023-04-12T00:25:39.971Z,100284.56
2023-04-12T00:28:06.558Z,100286.09
2023-04-12T00:30:33.169Z,100280.59
2023-04-12T00:32:59.725Z,100291.69
2023-04-12T00:35:26.296Z,100276.56
2023-04-12T00:37:52.764Z,100277.41
2023-04-12T00:40:19.283Z,100267.06
2023-04-12T00:42:46.216Z,100251.31
2023-04-12T00:45:13.920Z,100259.28
2023-04-12T00:47:43.284Z,100258.00
2023-04-12T00:50:11.997Z,100252.44
2023-04-12T00:52:39.489Z,100254.56
2023-04-12T00:55:09.956Z,100256.13
2023-04-12T00:57:39.255Z,100251.28
2023-04-12T01:00:17.440Z,100239.88
2023-04-12T01:02:47.309Z,100226.88
2023-04-12T01:05:23.863Z,100224.00
2023-04-12T01:08:10.671Z,100228.44
2023-04-12T01:10:55.437Z,100219.78
2023-04-12T01:13:27.757Z,100213.22
2023-04-12T01:16:00.198Z,100205.63
2023-04-12T01:18:30.515Z,100209.81
2023-04-12T01:21:20.177Z,100196.34
2023-04-12T01:23:58.658Z,100192.44
2023-04-12T01:26:34.402Z,100186.28
2023-04-12T01:29:09.984Z,100176.88
2023-04-12T01:31:39.870Z,100161.19
2023-04-12T01:34:08.261Z,100153.03
2023-04-12T01:36:37.474Z,100161.28
2023-04-12T01:39:05.079Z,100154.56
2023-04-12T01:41:32.787Z,100147.91
2023-04-12T01:43:59.571Z,100142.00
2023-04-12T01:46:26.299Z,100136.94
2023-04-12T01:48:54.199Z,100130.19
2023-04-12T01:51:28.560Z,100128.66
2023-04-12T01:54:00.459Z,100127.13
2023-04-12T01:56:31.661Z,100130.56
2023-04-12T01:58:59.506Z,100112.94
2023-04-12T02:01:26.728Z,100106.59
2023-04-12T02:03:53.843Z,100100.31
2023-04-12T02:06:23.331Z,100100.34
2023-04-12T02:08:49.985Z,100085.25
2023-04-12T02:11:16.482Z,100075.28
2023-04-12T02:13:42.945Z,100078.91
2023-04-12T02:16:13.976Z,100079.72
2023-04-12T02:18:41.564Z,100066.63
2023-04-12T02:21:08.162Z,100057.28
2023-04-12T02:23:34.678Z,100056.34
2023-04-12T02:26:01.123Z,100053.63
2023-04-12T02:28:27.575Z,100044.25
2023-04-12T02:30:54.217Z,100034.72
2023-04-12T02:33:21.753Z,100037.25
2023-04-12T02:35:48.233Z,100019.00
2023-04-12T02:38:14.701Z,100021.47
2023-04-12T02:40:42.215Z,99999.63
2023-04-12T02:43:09.549Z,100001.00
2023-04-12T02:45:36.448Z,99995.31
2023-04-12T02:48:03.132Z,100000.16
2023-04-12T02:50:29.625Z,99974.91
2023-04-12T02:53:01.650Z,99978.75
2023-04-12T02:55:28.088Z,99970.94
2023-04-12T02:57:55.061Z,99967.16
2023-04-12T03:00:21.747Z,99952.03
2023-04-12T03:02:49.923Z,99951.97
2023-04-12T03:05:17.630Z,99960.00
2023-04-12T03:07:44.690Z,99940.59
2023-04-12T03:10:14.292Z,99933.34
2023-04-12T03:12:40.732Z,99917.47
2023-04-12T03:15:08.048Z,99919.91
2023-04-12T03:17:34.615Z,99914.47
2023-04-12T03:20:10.492Z,99902.53
2023-04-12T03:22:37.447Z,99890.72
2023-04-12T03:25:05.182Z,99898.66
2023-04-12T03:27:31.743Z,99892.50
2023-04-12T03:29:58.222Z,99874.63
2023-04-12T03:32:25.602Z,99865.47
2023-04-12T03:34:52.212Z,99864.28
2023-04-12T03:37:19.186Z,99860.41
2023-04-12T03:39:48.020Z,99862.38
2023-04-12T03:42:25.834Z,99838.31
2023-04-12T03:44:56.614Z,99847.41
2023-04-12T03:47:23.161Z,99832.03
2023-04-12T03:50:06.068Z,99826.84
2023-04-12T03:52:35.995Z,99818.97
2023-04-12T03:55:02.520Z,99815.38
2023-04-12T03:57:28.949Z,99814.22
2023-04-12T03:59:55.444Z,99807.50
2023-04-12T04:02:22.157Z,99784.94
2023-04-12T04:04:48.886Z,99786.94
2023-04-12T04:07:16.029Z,99782.28
2023-04-12T04:09:42.610Z,99779.47
2023-04-12T04:12:09.252Z,99775.09
2023-04-12T04:14:36.893Z,99773.03
2023-04-12T04:17:03.384Z,99758.88
2023-04-12T04:19:29.959Z,99761.69
2023-04-12T04:21:56.796Z,99751.00
2023-04-12T04:24:25.224Z,99751.34
2023-04-12T04:26:54.382Z,99737.09
2023-04-12T04:29:20.950Z,99729.41
2023-04-12T04:31:48.553Z,99728.03
2023-04-12T04:34:16.239Z,99730.81
2023-04-12T04:36:43.674Z,99725.28
2023-04-12T04:39:10.508Z,99714.22
2023-04-12T04:41:39.756Z,99712.41
2023-04-12T04:44:09.358Z,99711.06
2023-04-12T04:46:39.677Z,99710.34
2023-04-12T04:49:06.795Z,99702.78
2023-04-12T04:51:36.590Z,99710.56
2023-04-12T04:54:03.323Z,99704.31
2023-04-12T04:56:29.748Z,99703.59
2023-04-12T04:58:57.147Z,99695.31
2023-04-12T05:01:28.361Z,99696.88
2023-04-12T05:03:55.706Z,99697.69
2023-04-12T05:06:22.778Z,99691.88
2023-04-12T05:08:49.230Z,99680.78
2023-04-12T05:11:15.920Z,99679.50
2023-04-12T05:13:42.358Z,99675.78
2023-04-12T05:16:09.288Z,99664.66
2023-04-12T05:18:35.855Z,99665.97
2023-04-12T05:21:03.961Z,99668.38
2023-04-12T05:23:31.210Z,99669.16
2023-04-12T05:25:57.666Z,99664.53
2023-04-12T05:28:24.088Z,99661.78
2023-04-12T05:30:51.384Z,99666.25
2023-04-12T05:33:17.870Z,99664.78
2023-04-12T05:35:44.443Z,99656.13
2023-04-12T05:38:11.053Z,99636.00
2023-04-12T05:40:37.534Z,99648.34
2023-04-12T05:43:04.016Z,99644.53
2023-04-12T05:45:30.565Z,99635.84
2023-04-12T05:47:57.008Z,99630.28
2023-04-12T05:50:23.610Z,99628.06
2023-04-12T05:52:51.206Z,99619.34
2023-04-12T05:55:18.451Z,99623.38
2023-04-12T05:57:46.684Z,99619.41
2023-04-12T06:00:14.237Z,99608.75
2023-04-12T06:02:41.058Z,99614.28
2023-04-12T06:05:08.577Z,99607.31
2023-04-12T06:07:35.233Z,99597.09
2023-04-12T06:10:01.673Z,99590.34
2023-04-12T06:12:28.164Z,99595.44
2023-04-12T06:14:55.809Z,99590.97
2023-04-12T06:17:22.356Z,99596.56
2023-04-12T06:19:48.894Z,99578.13
2023-04-12T06:22:15.954Z,99589.16
2023-04-12T06:24:42.384Z,99585.16
2023-04-12T06:27:09.138Z,99568.84
2023-04-12T06:29:35.629Z,99557.13
2023-04-12T06:32:02.161Z,99571.59
2023-04-12T06:34:28.680Z,99562.09
2023-04-12T06:36:55.195Z,99559.41
2023-04-12T06:39:21.884Z,99546.75
2023-04-12T06:41:50.247Z,99557.53
2023-04-12T06:44:16.949Z,99547.53
2023-04-12T06:46:43.514Z,99532.22
2023-04-12T06:49:10.638Z,99543.56
2023-04-12T06:51:37.566Z,99537.91
2023-04-12T06:54:04.049Z,99532.03
2023-04-12T06:56:30.609Z,99526.06
2023-04-12T06:58:57.329Z,99518.50
2023-04-12T07:01:24.129Z,99514.56
2023-04-12T07:03:50.933Z,99504.69
2023-04-12T07:06:24.961Z,99508.94
2023-04-12T07:08:52.561Z,99502.66
2023-04-12T07:11:21.815Z,99505.44
2023-04-12T07:13:49.379Z,99501.91
2023-04-12T07:16:16.473Z,99489.13
2023-04-12T07:18:42.945Z,99487.25
2023-04-12T07:21:09.438Z,99487.91
2023-04-12T07:23:35.899Z,99485.44
2023-04-12T07:26:02.733Z,99492.50
2023-04-12T07:28:29.219Z,99481.38
2023-04-12T07:30:55.860Z,99473.53
2023-04-12T07:33:22.506Z,99483.66
2023-04-12T07:35:49.186Z,99472.72
2023-04-12T07:38:16.879Z,99474.22
2023-04-12T07:40:43.647Z,99459.19
2023-04-12T07:43:10.393Z,99457.41
2023-04-12T07:45:38.101Z,99456.66
2023-04-12T07:48:04.832Z,99452.47
2023-04-12T07:50:31.374Z,99447.66
2023-04-12T07:53:28.569Z,99448.06
2023-04-12T07:55:56.321Z,99439.63
2023-04-12T07:58:24.068Z,99437.28
2023-04-12T08:00:51.055Z,99428.72
2023-04-12T08:03:19.003Z,99423.03
2023-04-12T08:05:47.241Z,99439.53
2023-04-12T08:08:14.142Z,99438.25
2023-04-12T08:10:40.938Z,99440.31
2023-04-12T08:13:07.538Z,99443.03
2023-04-12T08:15:34.132Z,99437.94
2023-04-12T08:18:01.636Z,99457.34
2023-04-12T08:20:28.197Z,99456.28
2023-04-12T08:22:54.959Z,99451.91
2023-04-12T08:25:22.229Z,99458.72
2023-04-12T08:27:50.268Z,99457.50
2023-04-12T08:30:17.815Z,99451.19
2023-04-12T08:32:44.520Z,99458.34
2023-04-12T08:35:11.923Z,99460.91
2023-04-12T08:37:38.866Z,99443.53
2023-04-12T08:40:07.283Z,99432.41
2023-04-12T08:42:38.142Z,99427.41
2023-04-12T08:45:06.215Z,99419.91
2023-04-12T08:47:34.746Z,99412.19
2023-04-12T08:50:08.242Z,99419.56
2023-04-12T08:52:36.356Z,99419.41
2023-04-12T08:55:04.212Z,99421.22
2023-04-12T08:57:32.646Z,99409.97
2023-04-12T09:00:00.951Z,99418.38
2023-04-12T09:02:28.331Z,99422.53
2023-04-12T09:04:55.637Z,99418.72
2023-04-12T09:07:23.351Z,99411.47
2023-04-12T09:09:50.757Z,99416.31
2023-04-12T09:12:20.011Z,99408.34
2023-04-12T09:14:46.821Z,99406.09
2023-04-12T09:17:27.803Z,99398.16
2023-04-12T09:19:57.288Z,99401.63
2023-04-12T09:22:37.621Z,99404.03
2023-04-12T09:25:04.375Z,99405.25
2023-04-12T09:27:46.506Z,99393.56
2023-04-12T09:30:13.634Z,99401.34
2023-04-12T09:32:40.186Z,99408.25
2023-04-12T09:35:07.616Z,99405.56
2023-04-12T09:37:34.111Z,99410.41
2023-04-12T09:40:02.151Z,99413.13
2023-04-12T09:42:33.855Z,99402.03
2023-04-12T09:45:18.381Z,99402.13
2023-04-12T09:47:45.006Z,99391.56
2023-04-12T09:50:20.646Z,99397.78
2023-04-12T09:52:47.239Z,99401.94
2023-04-12T09:55:14.339Z,99390.88
2023-04-12T09:57:42.946Z,99404.28
2023-04-12T10:00:14.340Z,99390.94
2023-04-12T10:02:43.858Z,99406.78
2023-04-12T10:05:13.386Z,99394.03
2023-04-12T10:07:44.004Z,99393.59
2023-04-12T10:10:15.987Z,99400.53
2023-04-12T10:12:45.626Z,99397.06
2023-04-12T10:15:13.521Z,99387.75
2023-04-12T10:17:45.720Z,99388.63
2023-04-12T10:20:13.504Z,99377.84
2023-04-12T10:22:50.791Z,99367.81
2023-04-12T10:25:20.576Z,99372.75
2023-04-12T10:27:47.923Z,99364.16
2023-04-12T10:30:22.431Z,99372.31
2023-04-12T10:33:09.930Z,99372.56
2023-04-12T10:35:48.359Z,99371.59
2023-04-12T10:38:15.663Z,99369.63
2023-04-12T10:41:11.474Z,99369.63
2023-04-12T10:43:38.155Z,99362.25
2023-04-12T10:46:06.635Z,99360.38
2023-04-12T10:48:39.895Z,99368.06
2023-04-12T10:51:25.818Z,99369.53
2023-04-12T10:53:53.650Z,99375.31
2023-04-12T10:56:32.843Z,99367.13
2023-04-12T10:59:01.797Z,99367.00
2023-04-12T11:01:29.783Z,99367.41
2023-04-12T11:04:22.005Z,99371.69
2023-04-12T11:07:04.663Z,99378.38
2023-04-12T11:09:33.915Z,99381.47
2023-04-12T11:12:08.183Z,99391.16
2023-04-12T11:14:52.122Z,99385.72
2023-04-12T11:17:20.497Z,99391.59
2023-04-12T11:19:49.654Z,99391.50
2023-04-12T11:22:17.664Z,99408.34
2023-04-12T11:24:52.248Z,99390.06
2023-04-12T11:27:20.579Z,99386.63
2023-04-12T11:29:56.078Z,99376.59
2023-04-12T11:32:24.937Z,99377.47
2023-04-12T11:34:51.629Z,99387.88
2023-04-12T11:37:19.623Z,99393.09
2023-04-12T11:39:47.174Z,99391.81
2023-04-12T11:42:19.508Z,99381.66
2023-04-12T11:44:57.134Z,99388.22
2023-04-12T11:47:26.755Z,99389.25
2023-04-12T11:49:57.121Z,99393.47
2023-04-12T11:52:33.672Z,99389.34
2023-04-12T11:55:06.566Z,99396.09
2023-04-12T11:57:35.825Z,99402.75
2023-04-12T12:00:05.979Z,99407.78
2023-04-12T12:02:39.291Z,99411.56
2023-04-12T12:05:13.146Z,99410.16
2023-04-12T12:07:40.217Z,99405.41
2023-04-12T12:10:07.596Z,99399.50
2023-04-12T12:12:34.262Z,99401.63
2023-04-12T12:15:02.076Z,99387.09
2023-04-12T12:17:29.055Z,99394.56
2023-04-12T12:19:58.273Z,99393.09
2023-04-12T12:22:24.732Z,99392.06
2023-04-12T12:24:52.451Z,99397.66
2023-04-12T12:27:24.011Z,99395.13
2023-04-12T12:29:53.349Z,99389.34
2023-04-12T12:32:20.807Z,99394.50
2023-04-12T12:34:54.801Z,99382.13
2023-04-12T12:37:26.082Z,99385.97
2023-04-12T12:40:16.373Z,99382.13
2023-04-12T12:42:46.926Z,99374.03
2023-04-12T12:45:13.882Z,99372.06
2023-04-12T12:47:54.573Z,99379.94
2023-04-12T12:50:26.503Z,99375.47
2023-04-12T12:52:54.182Z,99377.63
2023-04-12T12:55:21.877Z,99383.22
2023-04-12T12:58:02.184Z,99364.13
2023-04-12T13:00:32.317Z,99369.91
2023-04-12T13:02:59.281Z,99368.63
2023-04-12T13:05:26.035Z,99363.50
2023-04-12T13:07:52.500Z,99355.75
2023-04-12T13:10:18.924Z,99359.06
2023-04-12T13:12:46.003Z,99352.06
2023-04-12T13:15:22.016Z,99349.63
2023-04-12T13:17:49.421Z,99352.63
2023-04-12T13:20:16.464Z,99343.13
2023-04-12T13:22:43.179Z,99348.34
2023-04-12T13:25:09.896Z,99344.81
2023-04-12T13:27:36.869Z,99348.22
2023-04-12T13:30:04.317Z,99340.22
2023-04-12T13:32:30.983Z,99330.72
2023-04-12T13:34:57.442Z,99330.59
2023-04-12T13:37:24.831Z,99330.53
2023-04-12T13:39:52.515Z,99323.41
2023-04-12T13:42:19.018Z,99326.66
2023-04-12T13:44:45.895Z,99316.53
2023-04-12T13:47:12.585Z,99313.53
2023-04-12T13:49:39.079Z,99326.97
2023-04-12T13:52:05.749Z,99335.66
2023-04-12T13:54:32.325Z,99332.13
2023-04-12T13:56:59.327Z,99335.91
2023-04-12T13:59:26.806Z,99320.78
2023-04-12T14:01:54.178Z,99324.34
2023-04-12T14:04:21.050Z,99328.22
2023-04-12T14:06:47.619Z,99330.16
2023-04-12T14:09:28.215Z,99359.47
2023-04-12T14:11:56.208Z,99367.97
2023-04-12T14:14:23.704Z,99388.09
2023-04-12T14:16:56.961Z,99401.09
2023-04-12T14:19:24.056Z,99404.38
2023-04-12T14:21:50.720Z,99395.97
2023-04-12T14:24:18.543Z,99418.22
2023-04-12T14:26:45.344Z,99414.78
2023-04-12T14:29:12.318Z,99412.97
2023-04-12T14:31:38.912Z,99420.81
2023-04-12T14:34:06.291Z,99427.56
2023-04-12T14:36:33.426Z,99433.72
2023-04-12T14:39:01.594Z,99434.31
2023-04-12T14:41:28.356Z,99438.59
2023-04-12T14:43:54.827Z,99449.53
2023-04-12T14:46:21.502Z,99443.97
2023-04-12T14:48:48.003Z,99447.91
2023-04-12T14:51:14.494Z,99448.56
2023-04-12T14:53:42.631Z,99451.13
2023-04-12T14:56:25.038Z,99459.94
2023-04-12T14:58:54.163Z,99457.06
2023-04-12T15:01:21.758Z,99465.91
2023-04-12T15:03:48.356Z,99460.25
2023-04-12T15:06:15.581Z,99460.19
2023-04-12T15:08:42.707Z,99460.09
2023-04-12T15:11:10.782Z,99458.81
2023-04-12T15:13:39.858Z,99451.28
2023-04-12T15:16:08.844Z,99454.31
2023-04-12T15:18:41.622Z,99461.31
2023-04-12T15:21:10.348Z,99470.84
2023-04-12T15:23:38.404Z,99469.09
2023-04-12T15:26:12.065Z,99479.94
2023-04-12T15:28:38.694Z,99486.41
2023-04-12T15:31:05.801Z,99484.69
2023-04-12T15:33:34.343Z,99492.06
2023-04-12T15:36:02.369Z,99498.28
2023-04-12T15:38:29.868Z,99503.88
2023-04-12T15:40:58.550Z,99511.97
2023-04-12T15:43:25.572Z,99516.72
2023-04-12T15:45:54.504Z,99518.47
2023-04-12T15:48:22.637Z,99510.91
2023-04-12T15:50:50.014Z,99505.50
2023-04-12T15:53:19.171Z,99494.81
2023-04-12T15:55:45.846Z,99501.72
2023-04-12T15:58:13.503Z,99497.91
2023-04-12T16:00:40.962Z,99504.44
2023-04-12T16:03:09.089Z,99507.56
2023-04-12T16:05:35.991Z,99502.47
2023-04-12T16:08:03.095Z,99511.19
2023-04-12T16:10:30.308Z,99512.06
2023-04-12T16:12:57.163Z,99507.66
2023-04-12T16:15:23.878Z,99501.84
2023-04-12T16:17:55.313Z,99505.22
2023-04-12T16:20:22.752Z,99505.41
2023-04-12T16:22:54.162Z,99515.16
2023-04-12T16:25:25.454Z,99522.63
2023-04-12T16:27:52.280Z,99518.72
2023-04-12T16:30:18.868Z,99521.69
2023-04-12T16:32:50.677Z,99530.25
2023-04-12T16:35:17.469Z,99527.22
2023-04-12T16:37:45.947Z,99534.97
2023-04-12T16:40:12.985Z,99537.81
2023-04-12T16:42:44.163Z,99540.41
2023-04-12T16:45:13.897Z,99535.75
2023-04-12T16:47:40.904Z,99540.00
2023-04-12T16:50:12.363Z,99551.88
2023-04-12T16:52:39.866Z,99571.03
2023-04-12T16:55:06.943Z,99575.81
2023-04-12T16:57:33.447Z,99575.53
2023-04-12T17:00:00.495Z,99569.59
2023-04-12T17:02:27.380Z,99576.63
2023-04-12T17:04:54.016Z,99566.69
2023-04-12T17:07:20.480Z,99555.22
2023-04-12T17:09:46.958Z,99563.63
2023-04-12T17:12:13.444Z,99551.72
2023-04-12T17:14:39.942Z,99526.78
2023-04-12T17:17:06.822Z,99521.13
2023-04-12T17:19:33.776Z,99523.19
2023-04-12T17:22:00.559Z,99535.41
2023-04-12T17:24:27.097Z,99536.25
2023-04-12T17:26:53.901Z,99532.38
2023-04-12T17:29:20.495Z,99528.50
2023-04-12T17:31:50.597Z,99529.41
2023-04-12T17:34:19.665Z,99510.59
2023-04-12T17:36:46.181Z,99519.16
2023-04-12T17:39:12.631Z,99523.28
2023-04-12T17:41:39.386Z,99525.25
2023-04-12T17:44:06.727Z,99524.69
2023-04-12T17:46:34.752Z,99516.88
2023-04-12T17:49:04.083Z,99514.63
2023-04-12T17:51:32.152Z,99512.50
2023-04-12T17:54:00.343Z,99513.97
2023-04-12T17:56:26.913Z,99512.38
2023-04-12T17:58:53.417Z,99507.28
2023-04-12T18:01:19.942Z,99503.78
2023-04-12T18:03:47.579Z,99514.13
2023-04-12T18:06:14.227Z,99519.66
2023-04-12T18:08:40.740Z,99516.22
2023-04-12T18:11:07.992Z,99526.56
2023-04-12T18:13:34.493Z,99511.97
2023-04-12T18:16:01.529Z,99515.16
2023-04-12T18:18:28.097Z,99512.03
2023-04-12T18:20:54.613Z,99519.59
2023-04-12T18:23:21.456Z,99517.25
2023-04-12T18:25:48.099Z,99514.56
2023-04-12T18:28:14.996Z,99515.47
2023-04-12T18:30:41.593Z,99519.09
2023-04-12T18:33:08.298Z,99525.47
2023-04-12T18:35:35.000Z,99529.88
2023-04-12T18:38:01.484Z,99530.00
2023-04-12T18:40:28.543Z,99535.53
2023-04-12T18:42:55.032Z,99525.78
2023-04-12T18:45:22.374Z,99536.00
2023-04-12T18:47:52.888Z,99543.56
2023-04-12T18:50:19.626Z,99535.72
2023-04-12T18:52:46.157Z,99549.19
2023-04-12T18:55:12.653Z,99556.72
2023-04-12T18:57:39.311Z,99550.13
2023-04-12T19:00:13.497Z,99561.88
2023-04-12T19:02:40.931Z,99553.28
2023-04-12T19:05:10.352Z,99559.56
2023-04-12T19:07:37.411Z,99559.56
2023-04-12T19:10:04.592Z,99554.06
2023-04-12T19:12:31.699Z,99552.91
2023-04-12T19:14:58.330Z,99557.66
2023-04-12T19:17:27.578Z,99561.16
2023-04-12T19:19:54.925Z,99559.53
2023-04-12T19:22:21.665Z,99546.13
2023-04-12T19:24:49.876Z,99542.91
2023-04-12T19:27:16.767Z,99543.66
2023-04-12T19:29:44.073Z,99552.25
2023-04-12T19:32:13.648Z,99550.63
2023-04-12T19:34:40.589Z,99544.28
2023-04-12T19:37:07.881Z,99541.94
2023-04-12T19:39:34.593Z,99547.84
2023-04-12T19:42:02.276Z,99549.31
2023-04-12T19:44:29.297Z,99548.97
2023-04-12T19:46:56.110Z,99550.63
2023-04-12T19:49:23.930Z,99552.97
2023-04-12T19:51:53.225Z,99551.34
2023-04-12T19:54:23.658Z,99545.81
2023-04-12T19:56:50.531Z,99547.03
2023-04-12T19:59:17.836Z,99537.63
2023-04-12T20:01:50.345Z,99535.63
2023-04-12T20:04:21.683Z,99547.56
2023-04-12T20:06:50.061Z,99538.50
2023-04-12T20:09:17.232Z,99526.34
2023-04-12T20:11:44.079Z,99530.31
2023-04-12T20:14:10.626Z,99536.22
2023-04-12T20:16:38.316Z,99528.38
2023-04-12T20:19:05.331Z,99532.72
2023-04-12T20:21:34.121Z,99543.81
2023-04-12T20:24:01.945Z,99540.66
2023-04-12T20:26:31.497Z,99537.19
2023-04-12T20:28:59.849Z,99538.81
2023-04-12T20:31:27.366Z,99545.63
2023-04-12T20:33:58.294Z,99531.00
2023-04-12T20:36:26.224Z,99526.56
2023-04-12T20:38:53.779Z,99525.38
2023-04-12T20:41:20.449Z,99511.78
2023-04-12T20:43:47.857Z,99510.78
2023-04-12T20:46:17.044Z,99525.00
2023-04-12T20:48:44.588Z,99543.88
2023-04-12T20:51:11.827Z,99553.31
2023-04-12T20:53:38.457Z,99553.28
2023-04-12T20:56:05.266Z,99550.88
2023-04-12T20:58:34.861Z,99543.34
2023-04-12T21:01:04.941Z,99523.66
2023-04-12T21:03:38.427Z,99516.19
2023-04-12T21:06:09.204Z,99522.53
2023-04-12T21:08:35.990Z,99530.50
2023-04-12T21:11:02.631Z,99541.97
2023-04-12T21:13:30.647Z,99556.19
2023-04-12T21:15:58.660Z,99538.28
2023-04-12T21:18:25.203Z,99528.75
2023-04-12T21:20:51.878Z,99517.00
2023-04-12T21:23:18.410Z,99508.88
2023-04-12T21:25:48.486Z,99501.72
2023-04-12T21:28:15.006Z,99505.41
2023-04-12T21:30:42.111Z,99494.34
2023-04-12T21:33:08.649Z,99500.66
2023-04-12T21:35:35.193Z,99496.72
2023-04-12T21:38:01.734Z,99489.63
2023-04-12T21:40:28.327Z,99486.47
2023-04-12T21:42:54.787Z,99481.91
2023-04-12T21:45:21.326Z,99481.16
2023-04-12T21:47:48.825Z,99486.38
2023-04-12T21:50:15.698Z,99489.97
2023-04-12T21:52:47.144Z,99493.97
2023-04-12T21:55:13.712Z,99488.16
2023-04-12T21:57:40.437Z,99494.47
2023-04-12T22:00:09.899Z,99489.47
2023-04-12T22:02:36.818Z,99493.50
2023-04-12T22:05:03.584Z,99493.56
2023-04-12T22:07:30.234Z,99492.00
2023-04-12T22:09:58.588Z,99499.44
2023-04-12T22:12:25.706Z,99481.03
2023-04-12T22:14:52.200Z,99484.69
2023-04-12T22:17:22.344Z,99473.44
2023-04-12T22:19:49.007Z,99475.44
2023-04-12T22:22:16.042Z,99472.19
2023-04-12T22:24:42.940Z,99458.84
2023-04-12T22:27:09.504Z,99473.00
2023-04-12T22:29:37.531Z,99459.59
2023-04-12T22:32:04.120Z,99456.03
2023-04-12T22:34:30.625Z,99456.38
2023-04-12T22:36:59.958Z,99452.47
2023-04-12T22:39:26.715Z,99454.53
2023-04-12T22:41:53.716Z,99450.22
2023-04-12T22:44:23.556Z,99454.63
2023-04-12T22:46:51.310Z,99440.44
2023-04-12T22:49:18.418Z,99448.38
2023-04-12T22:51:44.910Z,99427.94
2023-04-12T22:54:12.081Z,99433.16
2023-04-12T22:56:47.790Z,99433.47
2023-04-12T22:59:15.493Z,99428.38
2023-04-12T23:01:42.321Z,99426.84
2023-04-12T23:04:09.716Z,99410.72
2023-04-12T23:06:39.799Z,99411.09
2023-04-12T23:09:06.999Z,99404.84
2023-04-12T23:11:35.334Z,99395.38
2023-04-12T23:14:02.564Z,99396.91
2023-04-12T23:16:29.647Z,99400.88
2023-04-12T23:18:56.154Z,99395.31
2023-04-12T23:21:22.613Z,99378.47
2023-04-12T23:23:49.506Z,99384.28
2023-04-12T23:26:15.993Z,99381.91
2023-04-12T23:28:43.183Z,99373.34
2023-04-12T23:31:09.854Z,99370.91
2023-04-12T23:33:36.362Z,99374.91
2023-04-12T23:36:03.499Z,99374.81
2023-04-12T23:38:33.889Z,99367.72
2023-04-12T23:41:02.379Z,99359.06
2023-04-12T23:43:29.707Z,99357.16
2023-04-12T23:45:57.292Z,99353.84
2023-04-12T23:48:24.457Z,99355.81
2023-04-12T23:50:51.815Z,99347.91
2023-04-12T23:53:19.123Z,99354.06
2023-04-12T23:55:53.359Z,99357.31
2023-04-12T23:58:20.995Z,99363.16
